CMB56 KDHN-KECP
Flight info
| Callsign | CMB56 |
|---|---|
| Flight time | 0h 22m |
| Altitude | 12000 |
| Route | POPER |
| Aircraft | A320/M-SDE3FGHIRWY/LB1 |
Departure
| Time | 2026-05-09 00:09 |
|---|---|
| Airport | Dothan Regional Airport (KDHN) |
Arrival
| Time | 2026-05-09 00:31 |
|---|---|
| Airport | Northwest Florida Beaches International Airport (KECP) |
| Time | Latitude | Longitude | Altitude | Speed | Heading |
|---|---|---|---|---|---|
| 2026-05-08 23:41 | 31.31441 | -85.44748 | 389 ft | 0 kts | 0° |
| 2026-05-09 00:02 | 31.31442 | -85.44748 | 389 ft | 0 kts | 0° |
| 2026-05-09 00:03 | 31.31443 | -85.44748 | 389 ft | 1 kts | 0° |
| 2026-05-09 00:03 | 31.31455 | -85.44747 | 389 ft | 3 kts | 0° |
| 2026-05-09 00:03 | 31.31483 | -85.44747 | 389 ft | 5 kts | 1° |
| 2026-05-09 00:04 | 31.31529 | -85.44745 | 389 ft | 8 kts | 1° |
| 2026-05-09 00:04 | 31.31585 | -85.44726 | 390 ft | 9 kts | 54° |
| 2026-05-09 00:04 | 31.31555 | -85.44650 | 389 ft | 14 kts | 134° |
| 2026-05-09 00:04 | 31.31476 | -85.44558 | 388 ft | 18 kts | 135° |
| 2026-05-09 00:05 | 31.31385 | -85.44451 | 388 ft | 18 kts | 135° |
| 2026-05-09 00:05 | 31.31331 | -85.44345 | 387 ft | 12 kts | 59° |
| 2026-05-09 00:05 | 31.31347 | -85.44326 | 387 ft | 1 kts | 43° |
| 2026-05-09 00:05 | 31.31359 | -85.44313 | 387 ft | 3 kts | 43° |
| 2026-05-09 00:06 | 31.31381 | -85.44290 | 387 ft | 5 kts | 42° |
| 2026-05-09 00:06 | 31.31416 | -85.44261 | 387 ft | 7 kts | 12° |
| 2026-05-09 00:06 | 31.31444 | -85.44284 | 387 ft | 0 kts | 315° |
| 2026-05-09 00:08 | 31.31445 | -85.44285 | 387 ft | 1 kts | 315° |
| 2026-05-09 00:08 | 31.31551 | -85.44413 | 387 ft | 57 kts | 315° |
| 2026-05-09 00:09 | 31.31999 | -85.44930 | 392 ft | 120 kts | 315° |
| 2026-05-09 00:09 | 31.32692 | -85.45727 | 569 ft | 148 kts | 315° |
| 2026-05-09 00:09 | 31.33413 | -85.46563 | 1059 ft | 150 kts | 314° |
| 2026-05-09 00:09 | 31.34186 | -85.47444 | 1369 ft | 165 kts | 315° |
| 2026-05-09 00:10 | 31.35089 | -85.48444 | 1530 ft | 192 kts | 315° |
| 2026-05-09 00:10 | 31.36080 | -85.49537 | 2056 ft | 201 kts | 315° |
| 2026-05-09 00:10 | 31.37131 | -85.50682 | 2579 ft | 213 kts | 315° |
| 2026-05-09 00:10 | 31.38230 | -85.51884 | 3077 ft | 223 kts | 314° |
| 2026-05-09 00:11 | 31.39401 | -85.53160 | 3607 ft | 241 kts | 315° |
| 2026-05-09 00:11 | 31.40661 | -85.54576 | 4146 ft | 261 kts | 315° |
| 2026-05-09 00:11 | 31.41912 | -85.56173 | 4675 ft | 270 kts | 302° |
| 2026-05-09 00:11 | 31.42579 | -85.58217 | 5204 ft | 272 kts | 276° |
| 2026-05-09 00:12 | 31.42415 | -85.60407 | 5730 ft | 276 kts | 250° |
| 2026-05-09 00:12 | 31.41426 | -85.62311 | 6259 ft | 277 kts | 224° |
| 2026-05-09 00:12 | 31.39804 | -85.63508 | 6788 ft | 280 kts | 198° |
| 2026-05-09 00:12 | 31.37915 | -85.63745 | 7304 ft | 283 kts | 174° |
| 2026-05-09 00:13 | 31.35959 | -85.63174 | 7837 ft | 291 kts | 167° |
| 2026-05-09 00:13 | 31.34003 | -85.62511 | 8366 ft | 294 kts | 166° |
| 2026-05-09 00:13 | 31.32031 | -85.61833 | 8890 ft | 297 kts | 167° |
| 2026-05-09 00:13 | 31.30040 | -85.61151 | 9420 ft | 300 kts | 166° |
| 2026-05-09 00:14 | 31.28032 | -85.60467 | 9939 ft | 302 kts | 167° |
| 2026-05-09 00:14 | 31.25978 | -85.59773 | 10479 ft | 314 kts | 167° |
| 2026-05-09 00:14 | 31.23843 | -85.59058 | 11010 ft | 326 kts | 167° |
| 2026-05-09 00:14 | 31.21631 | -85.58316 | 11541 ft | 337 kts | 166° |
| 2026-05-09 00:15 | 31.19338 | -85.57545 | 11922 ft | 350 kts | 165° |
| 2026-05-09 00:15 | 31.16937 | -85.56738 | 11981 ft | 370 kts | 166° |
| 2026-05-09 00:15 | 31.14375 | -85.55882 | 11983 ft | 395 kts | 166° |
| 2026-05-09 00:15 | 31.11697 | -85.54981 | 11986 ft | 414 kts | 166° |
| 2026-05-09 00:16 | 31.08907 | -85.54043 | 11990 ft | 419 kts | 166° |
| 2026-05-09 00:16 | 31.06100 | -85.53100 | 11982 ft | 421 kts | 166° |
| 2026-05-09 00:16 | 31.03287 | -85.52155 | 11982 ft | 421 kts | 166° |
| 2026-05-09 00:16 | 31.00467 | -85.51204 | 11988 ft | 425 kts | 165° |
| 2026-05-09 00:17 | 30.97649 | -85.50251 | 11984 ft | 421 kts | 166° |
| 2026-05-09 00:17 | 30.94868 | -85.49316 | 11990 ft | 406 kts | 165° |
| 2026-05-09 00:17 | 30.92238 | -85.48493 | 12016 ft | 383 kts | 167° |
| 2026-05-09 00:17 | 30.89717 | -85.47701 | 11554 ft | 378 kts | 166° |
| 2026-05-09 00:18 | 30.87192 | -85.46854 | 10905 ft | 377 kts | 166° |
| 2026-05-09 00:18 | 30.84689 | -85.46013 | 10367 ft | 373 kts | 166° |
| 2026-05-09 00:18 | 30.82247 | -85.45196 | 10226 ft | 357 kts | 166° |
| 2026-05-09 00:18 | 30.79884 | -85.44484 | 10083 ft | 347 kts | 174° |
| 2026-05-09 00:19 | 30.77455 | -85.44507 | 9986 ft | 342 kts | 193° |
| 2026-05-09 00:19 | 30.75204 | -85.45075 | 10013 ft | 323 kts | 195° |
| 2026-05-09 00:19 | 30.73054 | -85.45624 | 10008 ft | 308 kts | 195° |
| 2026-05-09 00:19 | 30.70998 | -85.46136 | 10015 ft | 300 kts | 195° |
| 2026-05-09 00:20 | 30.68992 | -85.46634 | 10020 ft | 298 kts | 195° |
| 2026-05-09 00:20 | 30.66960 | -85.47142 | 10060 ft | 306 kts | 195° |
| 2026-05-09 00:20 | 30.64800 | -85.47693 | 10118 ft | 326 kts | 194° |
| 2026-05-09 00:20 | 30.62507 | -85.48281 | 10145 ft | 346 kts | 194° |
| 2026-05-09 00:21 | 30.60132 | -85.48884 | 10147 ft | 351 kts | 194° |
| 2026-05-09 00:21 | 30.57736 | -85.49484 | 10150 ft | 352 kts | 194° |
| 2026-05-09 00:21 | 30.55393 | -85.50066 | 10136 ft | 335 kts | 194° |
| 2026-05-09 00:21 | 30.53180 | -85.50615 | 10136 ft | 316 kts | 194° |
| 2026-05-09 00:22 | 30.51085 | -85.51135 | 10138 ft | 300 kts | 194° |
| 2026-05-09 00:22 | 30.49122 | -85.51623 | 10144 ft | 288 kts | 195° |
| 2026-05-09 00:22 | 30.47173 | -85.52120 | 10137 ft | 286 kts | 195° |
| 2026-05-09 00:22 | 30.45227 | -85.52619 | 10135 ft | 286 kts | 195° |
| 2026-05-09 00:23 | 30.43280 | -85.53110 | 10122 ft | 287 kts | 194° |
| 2026-05-09 00:23 | 30.41326 | -85.53598 | 9769 ft | 289 kts | 194° |
| 2026-05-09 00:23 | 30.39346 | -85.54092 | 9379 ft | 289 kts | 194° |
| 2026-05-09 00:23 | 30.37383 | -85.54578 | 9003 ft | 288 kts | 194° |
| 2026-05-09 00:24 | 30.35449 | -85.55069 | 8626 ft | 288 kts | 194° |
| 2026-05-09 00:24 | 30.33495 | -85.55561 | 8265 ft | 287 kts | 194° |
| 2026-05-09 00:24 | 30.31545 | -85.56050 | 7911 ft | 286 kts | 194° |
| 2026-05-09 00:24 | 30.29604 | -85.56539 | 7558 ft | 283 kts | 193° |
| 2026-05-09 00:25 | 30.27686 | -85.57019 | 6994 ft | 282 kts | 193° |
| 2026-05-09 00:25 | 30.25777 | -85.57495 | 6433 ft | 280 kts | 193° |
| 2026-05-09 00:25 | 30.23879 | -85.57967 | 5875 ft | 277 kts | 193° |
| 2026-05-09 00:25 | 30.22003 | -85.58430 | 5314 ft | 275 kts | 193° |
| 2026-05-09 00:26 | 30.20248 | -85.59204 | 4932 ft | 264 kts | 216° |
| 2026-05-09 00:26 | 30.19025 | -85.60628 | 4719 ft | 249 kts | 239° |
| 2026-05-09 00:26 | 30.18422 | -85.62472 | 4181 ft | 248 kts | 263° |
| 2026-05-09 00:26 | 30.18512 | -85.64464 | 3540 ft | 251 kts | 279° |
| 2026-05-09 00:27 | 30.18794 | -85.66431 | 3213 ft | 244 kts | 283° |
| 2026-05-09 00:27 | 30.19416 | -85.68223 | 3055 ft | 240 kts | 300° |
| 2026-05-09 00:27 | 30.20205 | -85.69852 | 2941 ft | 224 kts | 299° |
| 2026-05-09 00:27 | 30.20952 | -85.71420 | 2848 ft | 221 kts | 298° |
| 2026-05-09 00:28 | 30.21734 | -85.72908 | 2739 ft | 211 kts | 312° |
| 2026-05-09 00:28 | 30.22856 | -85.73917 | 2574 ft | 203 kts | 335° |
| 2026-05-09 00:28 | 30.24162 | -85.74492 | 2293 ft | 202 kts | 339° |
| 2026-05-09 00:28 | 30.25448 | -85.75050 | 1998 ft | 192 kts | 339° |
| 2026-05-09 00:29 | 30.26667 | -85.75578 | 1715 ft | 183 kts | 339° |
| 2026-05-09 00:29 | 30.27822 | -85.76080 | 1497 ft | 170 kts | 339° |
| 2026-05-09 00:29 | 30.28860 | -85.76529 | 1290 ft | 150 kts | 339° |
| 2026-05-09 00:29 | 30.29793 | -85.76937 | 1052 ft | 138 kts | 339° |
| 2026-05-09 00:30 | 30.30680 | -85.77323 | 882 ft | 135 kts | 340° |
| 2026-05-09 00:30 | 30.31553 | -85.77700 | 728 ft | 133 kts | 340° |
| 2026-05-09 00:30 | 30.32418 | -85.78084 | 558 ft | 133 kts | 339° |
| 2026-05-09 00:30 | 30.33284 | -85.78463 | 376 ft | 133 kts | 339° |
| 2026-05-09 00:31 | 30.34151 | -85.78841 | 195 ft | 134 kts | 339° |
| 2026-05-09 00:31 | 30.35013 | -85.79214 | 65 ft | 125 kts | 341° |
| 2026-05-09 00:31 | 30.35680 | -85.79497 | 72 ft | 79 kts | 339° |
| 2026-05-09 00:31 | 30.36038 | -85.79651 | 67 ft | 34 kts | 339° |
| 2026-05-09 00:32 | 30.36182 | -85.79745 | 64 ft | 17 kts | 281° |
| 2026-05-09 00:32 | 30.36151 | -85.79861 | 63 ft | 11 kts | 246° |
| 2026-05-09 00:32 | 30.36075 | -85.79874 | 60 ft | 13 kts | 161° |
| 2026-05-09 00:32 | 30.35980 | -85.79833 | 61 ft | 16 kts | 159° |
| 2026-05-09 00:33 | 30.35870 | -85.79786 | 65 ft | 18 kts | 159° |
| 2026-05-09 00:33 | 30.35746 | -85.79732 | 64 ft | 21 kts | 160° |
| 2026-05-09 00:33 | 30.35602 | -85.79671 | 67 ft | 23 kts | 160° |
| 2026-05-09 00:33 | 30.35442 | -85.79598 | 63 ft | 26 kts | 159° |
| 2026-05-09 00:34 | 30.35263 | -85.79521 | 64 ft | 29 kts | 160° |
| 2026-05-09 00:34 | 30.35069 | -85.79438 | 66 ft | 31 kts | 159° |
| 2026-05-09 00:34 | 30.34864 | -85.79345 | 66 ft | 28 kts | 159° |
| 2026-05-09 00:34 | 30.34740 | -85.79294 | 64 ft | 18 kts | 159° |
| 2026-05-09 00:35 | 30.34611 | -85.79237 | 61 ft | 21 kts | 159° |
| 2026-05-09 00:35 | 30.34494 | -85.79199 | 63 ft | 14 kts | 208° |
| 2026-05-09 00:35 | 30.34451 | -85.79304 | 66 ft | 16 kts | 249° |
| 2026-05-09 00:35 | 30.34430 | -85.79411 | 66 ft | 13 kts | 255° |
| 2026-05-09 00:36 | 30.34355 | -85.79417 | 62 ft | 13 kts | 159° |
| 2026-05-09 00:36 | 30.34268 | -85.79374 | 66 ft | 13 kts | 139° |
| 2026-05-09 00:36 | 30.34295 | -85.79338 | 66 ft | 0 kts | 335° |